sensor_id;sensor_type;location;lat;lon;timestamp;temperature;humidity
37456;DHT22;23316;50.718;7.328;2022-07-06T00:00:25;18.60;48.70
37456;DHT22;23316;50.718;7.328;2022-07-06T00:02:53;18.60;48.80
37456;DHT22;23316;50.718;7.328;2022-07-06T00:05:20;18.50;48.80
37456;DHT22;23316;50.718;7.328;2022-07-06T00:07:48;18.50;48.80
37456;DHT22;23316;50.718;7.328;2022-07-06T00:10:15;18.50;48.90
37456;DHT22;23316;50.718;7.328;2022-07-06T00:12:43;18.50;49.00
37456;DHT22;23316;50.718;7.328;2022-07-06T00:15:12;18.40;49.10
37456;DHT22;23316;50.718;7.328;2022-07-06T00:17:39;18.30;49.00
37456;DHT22;23316;50.718;7.328;2022-07-06T00:20:07;18.30;49.20
37456;DHT22;23316;50.718;7.328;2022-07-06T00:22:35;18.20;49.20
37456;DHT22;23316;50.718;7.328;2022-07-06T00:25:03;18.20;49.30
37456;DHT22;23316;50.718;7.328;2022-07-06T00:27:31;18.10;49.30
37456;DHT22;23316;50.718;7.328;2022-07-06T00:29:58;18.10;49.30
37456;DHT22;23316;50.718;7.328;2022-07-06T00:32:27;18.00;49.30
37456;DHT22;23316;50.718;7.328;2022-07-06T00:34:55;18.00;49.30
37456;DHT22;23316;50.718;7.328;2022-07-06T00:37:22;17.90;49.30
37456;DHT22;23316;50.718;7.328;2022-07-06T00:39:49;18.00;49.30
37456;DHT22;23316;50.718;7.328;2022-07-06T00:42:17;17.90;49.20
37456;DHT22;23316;50.718;7.328;2022-07-06T00:44:44;17.90;49.20
37456;DHT22;23316;50.718;7.328;2022-07-06T00:47:12;17.90;49.30
37456;DHT22;23316;50.718;7.328;2022-07-06T00:49:41;17.90;49.20
37456;DHT22;23316;50.718;7.328;2022-07-06T00:52:26;17.90;49.20
37456;DHT22;23316;50.718;7.328;2022-07-06T00:54:53;17.90;49.10
37456;DHT22;23316;50.718;7.328;2022-07-06T00:57:23;17.90;49.20
37456;DHT22;23316;50.718;7.328;2022-07-06T00:59:51;17.90;49.20
37456;DHT22;23316;50.718;7.328;2022-07-06T01:02:18;17.90;49.20
37456;DHT22;23316;50.718;7.328;2022-07-06T01:04:47;17.90;49.30
37456;DHT22;23316;50.718;7.328;2022-07-06T01:07:15;17.80;49.50
37456;DHT22;23316;50.718;7.328;2022-07-06T01:09:43;17.90;49.40
37456;DHT22;23316;50.718;7.328;2022-07-06T01:12:11;17.80;49.40
37456;DHT22;23316;50.718;7.328;2022-07-06T01:14:38;17.80;49.70
37456;DHT22;23316;50.718;7.328;2022-07-06T01:17:07;17.70;49.50
37456;DHT22;23316;50.718;7.328;2022-07-06T01:19:35;17.70;49.40
37456;DHT22;23316;50.718;7.328;2022-07-06T01:22:03;17.70;49.30
37456;DHT22;23316;50.718;7.328;2022-07-06T01:24:31;17.50;49.30
37456;DHT22;23316;50.718;7.328;2022-07-06T01:26:58;17.50;49.50
37456;DHT22;23316;50.718;7.328;2022-07-06T01:29:26;17.40;49.50
37456;DHT22;23316;50.718;7.328;2022-07-06T01:31:54;17.30;49.60
37456;DHT22;23316;50.718;7.328;2022-07-06T01:34:21;17.20;49.60
37456;DHT22;23316;50.718;7.328;2022-07-06T01:36:49;17.20;49.70
37456;DHT22;23316;50.718;7.328;2022-07-06T01:39:18;17.10;49.90
37456;DHT22;23316;50.718;7.328;2022-07-06T01:41:45;17.10;50.00
37456;DHT22;23316;50.718;7.328;2022-07-06T01:44:13;17.10;50.20
37456;DHT22;23316;50.718;7.328;2022-07-06T01:46:40;17.00;50.10
37456;DHT22;23316;50.718;7.328;2022-07-06T01:49:08;17.00;50.00
37456;DHT22;23316;50.718;7.328;2022-07-06T01:51:35;17.00;50.10
37456;DHT22;23316;50.718;7.328;2022-07-06T01:54:02;17.00;50.20
37456;DHT22;23316;50.718;7.328;2022-07-06T01:56:31;17.00;50.10
37456;DHT22;23316;50.718;7.328;2022-07-06T01:58:59;16.90;50.10
37456;DHT22;23316;50.718;7.328;2022-07-06T02:01:26;16.80;50.00
37456;DHT22;23316;50.718;7.328;2022-07-06T02:03:54;16.80;50.00
37456;DHT22;23316;50.718;7.328;2022-07-06T02:06:21;16.80;50.00
37456;DHT22;23316;50.718;7.328;2022-07-06T02:08:49;16.70;50.00
37456;DHT22;23316;50.718;7.328;2022-07-06T02:11:17;16.70;50.10
37456;DHT22;23316;50.718;7.328;2022-07-06T02:13:46;16.60;50.20
37456;DHT22;23316;50.718;7.328;2022-07-06T02:16:14;16.60;50.30
37456;DHT22;23316;50.718;7.328;2022-07-06T02:18:41;16.50;50.40
37456;DHT22;23316;50.718;7.328;2022-07-06T02:21:09;16.50;50.60
37456;DHT22;23316;50.718;7.328;2022-07-06T02:23:36;16.40;50.70
37456;DHT22;23316;50.718;7.328;2022-07-06T02:26:04;16.40;50.80
37456;DHT22;23316;50.718;7.328;2022-07-06T02:28:31;16.40;51.00
37456;DHT22;23316;50.718;7.328;2022-07-06T02:31:00;16.40;51.10
37456;DHT22;23316;50.718;7.328;2022-07-06T02:33:28;16.30;51.20
37456;DHT22;23316;50.718;7.328;2022-07-06T02:35:55;16.30;51.30
37456;DHT22;23316;50.718;7.328;2022-07-06T02:38:22;16.20;51.40
37456;DHT22;23316;50.718;7.328;2022-07-06T02:40:50;16.20;51.60
37456;DHT22;23316;50.718;7.328;2022-07-06T02:43:18;16.10;51.70
37456;DHT22;23316;50.718;7.328;2022-07-06T02:45:45;16.10;51.70
37456;DHT22;23316;50.718;7.328;2022-07-06T02:48:14;16.00;51.80
37456;DHT22;23316;50.718;7.328;2022-07-06T02:50:43;16.00;52.00
37456;DHT22;23316;50.718;7.328;2022-07-06T02:53:10;15.90;52.10
37456;DHT22;23316;50.718;7.328;2022-07-06T02:55:38;15.90;52.20
37456;DHT22;23316;50.718;7.328;2022-07-06T02:58:05;15.90;52.40
37456;DHT22;23316;50.718;7.328;2022-07-06T03:00:33;15.80;52.50
37456;DHT22;23316;50.718;7.328;2022-07-06T03:03:00;15.80;52.70
37456;DHT22;23316;50.718;7.328;2022-07-06T03:05:29;15.80;52.70
37456;DHT22;23316;50.718;7.328;2022-07-06T03:07:57;15.70;52.80
37456;DHT22;23316;50.718;7.328;2022-07-06T03:10:24;15.70;53.00
37456;DHT22;23316;50.718;7.328;2022-07-06T03:12:52;15.60;53.00
37456;DHT22;23316;50.718;7.328;2022-07-06T03:15:19;15.60;53.20
37456;DHT22;23316;50.718;7.328;2022-07-06T03:17:48;15.60;53.20
37456;DHT22;23316;50.718;7.328;2022-07-06T03:20:15;15.50;53.30
37456;DHT22;23316;50.718;7.328;2022-07-06T03:22:44;15.50;53.40
37456;DHT22;23316;50.718;7.328;2022-07-06T03:25:12;15.50;53.50
37456;DHT22;23316;50.718;7.328;2022-07-06T03:27:39;15.40;53.70
37456;DHT22;23316;50.718;7.328;2022-07-06T03:30:07;15.40;53.80
37456;DHT22;23316;50.718;7.328;2022-07-06T03:32:35;15.40;53.80
37456;DHT22;23316;50.718;7.328;2022-07-06T03:35:02;15.40;53.80
37456;DHT22;23316;50.718;7.328;2022-07-06T03:37:30;15.40;53.90
37456;DHT22;23316;50.718;7.328;2022-07-06T03:39:59;15.30;53.90
37456;DHT22;23316;50.718;7.328;2022-07-06T03:42:26;15.30;54.10
37456;DHT22;23316;50.718;7.328;2022-07-06T03:44:54;15.20;54.10
37456;DHT22;23316;50.718;7.328;2022-07-06T03:47:21;15.20;54.20
37456;DHT22;23316;50.718;7.328;2022-07-06T03:49:48;15.20;54.40
37456;DHT22;23316;50.718;7.328;2022-07-06T03:52:16;15.20;54.40
37456;DHT22;23316;50.718;7.328;2022-07-06T03:54:43;15.20;54.40
37456;DHT22;23316;50.718;7.328;2022-07-06T03:57:12;15.20;54.50
37456;DHT22;23316;50.718;7.328;2022-07-06T03:59:40;15.20;54.60
37456;DHT22;23316;50.718;7.328;2022-07-06T04:02:08;15.20;54.50
37456;DHT22;23316;50.718;7.328;2022-07-06T04:04:36;15.20;54.50
37456;DHT22;23316;50.718;7.328;2022-07-06T04:07:03;15.20;54.70
37456;DHT22;23316;50.718;7.328;2022-07-06T04:09:31;15.20;54.60
37456;DHT22;23316;50.718;7.328;2022-07-06T04:11:58;15.20;54.70
37456;DHT22;23316;50.718;7.328;2022-07-06T04:14:27;15.20;54.80
37456;DHT22;23316;50.718;7.328;2022-07-06T04:16:55;15.20;54.90
37456;DHT22;23316;50.718;7.328;2022-07-06T04:19:22;15.20;54.90
37456;DHT22;23316;50.718;7.328;2022-07-06T04:21:49;15.10;55.00
37456;DHT22;23316;50.718;7.328;2022-07-06T04:24:17;15.20;55.20
37456;DHT22;23316;50.718;7.328;2022-07-06T04:26:44;15.10;55.40
37456;DHT22;23316;50.718;7.328;2022-07-06T04:29:12;15.20;55.70
37456;DHT22;23316;50.718;7.328;2022-07-06T04:31:41;15.20;55.80
37456;DHT22;23316;50.718;7.328;2022-07-06T04:34:09;15.20;55.90
37456;DHT22;23316;50.718;7.328;2022-07-06T04:36:36;15.30;56.00
37456;DHT22;23316;50.718;7.328;2022-07-06T04:39:04;15.30;56.00
37456;DHT22;23316;50.718;7.328;2022-07-06T04:41:31;15.30;55.90
37456;DHT22;23316;50.718;7.328;2022-07-06T04:43:58;15.40;56.00
37456;DHT22;23316;50.718;7.328;2022-07-06T04:46:26;15.50;55.90
37456;DHT22;23316;50.718;7.328;2022-07-06T04:48:55;15.50;55.70
37456;DHT22;23316;50.718;7.328;2022-07-06T04:51:22;15.50;55.40
37456;DHT22;23316;50.718;7.328;2022-07-06T04:53:50;15.60;55.30
37456;DHT22;23316;50.718;7.328;2022-07-06T04:56:17;15.70;55.30
37456;DHT22;23316;50.718;7.328;2022-07-06T04:58:45;15.70;55.30
37456;DHT22;23316;50.718;7.328;2022-07-06T05:01:12;15.70;55.10
37456;DHT22;23316;50.718;7.328;2022-07-06T05:03:40;15.70;55.10
37456;DHT22;23316;50.718;7.328;2022-07-06T05:06:09;15.70;55.10
37456;DHT22;23316;50.718;7.328;2022-07-06T05:08:36;15.70;55.20
37456;DHT22;23316;50.718;7.328;2022-07-06T05:11:04;15.80;55.20
37456;DHT22;23316;50.718;7.328;2022-07-06T05:13:31;15.80;55.30
37456;DHT22;23316;50.718;7.328;2022-07-06T05:15:59;15.80;55.80
37456;DHT22;23316;50.718;7.328;2022-07-06T05:18:26;15.80;55.30
37456;DHT22;23316;50.718;7.328;2022-07-06T05:20:54;15.80;55.20
37456;DHT22;23316;50.718;7.328;2022-07-06T05:23:23;15.80;55.30
37456;DHT22;23316;50.718;7.328;2022-07-06T05:25:51;15.90;55.50
37456;DHT22;23316;50.718;7.328;2022-07-06T05:28:22;15.80;55.50
37456;DHT22;23316;50.718;7.328;2022-07-06T05:30:50;15.80;55.60
37456;DHT22;23316;50.718;7.328;2022-07-06T05:33:18;15.90;55.60
37456;DHT22;23316;50.718;7.328;2022-07-06T05:35:46;15.90;55.80
37456;DHT22;23316;50.718;7.328;2022-07-06T05:38:15;15.90;55.70
37456;DHT22;23316;50.718;7.328;2022-07-06T05:40:44;16.00;55.60
37456;DHT22;23316;50.718;7.328;2022-07-06T05:43:12;16.00;55.60
37456;DHT22;23316;50.718;7.328;2022-07-06T05:45:42;16.00;55.40
37456;DHT22;23316;50.718;7.328;2022-07-06T05:48:10;16.10;55.40
37456;DHT22;23316;50.718;7.328;2022-07-06T05:50:55;16.10;55.00
37456;DHT22;23316;50.718;7.328;2022-07-06T05:53:23;16.10;54.90
37456;DHT22;23316;50.718;7.328;2022-07-06T05:55:54;16.10;55.00
37456;DHT22;23316;50.718;7.328;2022-07-06T05:58:22;16.10;54.80
37456;DHT22;23316;50.718;7.328;2022-07-06T06:00:51;16.20;54.90
37456;DHT22;23316;50.718;7.328;2022-07-06T06:03:19;16.20;55.20
37456;DHT22;23316;50.718;7.328;2022-07-06T06:05:47;16.20;55.20
37456;DHT22;23316;50.718;7.328;2022-07-06T06:08:15;16.30;55.50
37456;DHT22;23316;50.718;7.328;2022-07-06T06:10:43;16.30;55.30
37456;DHT22;23316;50.718;7.328;2022-07-06T06:13:15;16.40;55.20
37456;DHT22;23316;50.718;7.328;2022-07-06T06:15:47;16.40;55.10
37456;DHT22;23316;50.718;7.328;2022-07-06T06:18:41;16.50;55.20
37456;DHT22;23316;50.718;7.328;2022-07-06T06:21:26;16.50;55.20
37456;DHT22;23316;50.718;7.328;2022-07-06T06:23:54;16.50;54.60
37456;DHT22;23316;50.718;7.328;2022-07-06T06:26:24;16.60;54.70
37456;DHT22;23316;50.718;7.328;2022-07-06T06:28:53;16.60;54.70
37456;DHT22;23316;50.718;7.328;2022-07-06T06:31:21;16.60;54.80
37456;DHT22;23316;50.718;7.328;2022-07-06T06:33:49;16.60;54.80
37456;DHT22;23316;50.718;7.328;2022-07-06T06:36:17;16.60;54.70
37456;DHT22;23316;50.718;7.328;2022-07-06T06:38:44;16.60;54.50
37456;DHT22;23316;50.718;7.328;2022-07-06T06:41:17;16.60;54.40
37456;DHT22;23316;50.718;7.328;2022-07-06T06:43:47;16.60;54.50
37456;DHT22;23316;50.718;7.328;2022-07-06T06:46:16;16.70;54.50
37456;DHT22;23316;50.718;7.328;2022-07-06T06:48:46;16.70;54.60
37456;DHT22;23316;50.718;7.328;2022-07-06T06:51:14;16.70;54.60
37456;DHT22;23316;50.718;7.328;2022-07-06T06:53:42;16.80;54.60
37456;DHT22;23316;50.718;7.328;2022-07-06T06:56:09;16.90;54.40
37456;DHT22;23316;50.718;7.328;2022-07-06T06:58:37;16.90;54.60
37456;DHT22;23316;50.718;7.328;2022-07-06T07:01:04;16.90;54.80
37456;DHT22;23316;50.718;7.328;2022-07-06T07:03:34;17.00;54.70
37456;DHT22;23316;50.718;7.328;2022-07-06T07:06:01;17.10;54.60
37456;DHT22;23316;50.718;7.328;2022-07-06T07:08:29;17.20;54.50
37456;DHT22;23316;50.718;7.328;2022-07-06T07:10:56;17.30;54.30
37456;DHT22;23316;50.718;7.328;2022-07-06T07:13:24;17.30;53.70
37456;DHT22;23316;50.718;7.328;2022-07-06T07:15:51;17.40;53.70
37456;DHT22;23316;50.718;7.328;2022-07-06T07:18:19;17.40;53.30
37456;DHT22;23316;50.718;7.328;2022-07-06T07:20:48;17.40;53.00
37456;DHT22;23316;50.718;7.328;2022-07-06T07:23:15;17.40;53.00
37456;DHT22;23316;50.718;7.328;2022-07-06T07:25:42;17.50;53.10
37456;DHT22;23316;50.718;7.328;2022-07-06T07:28:10;17.50;53.10
37456;DHT22;23316;50.718;7.328;2022-07-06T07:30:37;17.50;52.80
37456;DHT22;23316;50.718;7.328;2022-07-06T07:33:05;17.60;53.10
37456;DHT22;23316;50.718;7.328;2022-07-06T07:35:33;17.60;52.80
37456;DHT22;23316;50.718;7.328;2022-07-06T07:38:02;17.70;53.00
37456;DHT22;23316;50.718;7.328;2022-07-06T07:40:29;17.70;52.40
37456;DHT22;23316;50.718;7.328;2022-07-06T07:42:56;17.60;51.70
37456;DHT22;23316;50.718;7.328;2022-07-06T07:45:24;17.60;51.90
37456;DHT22;23316;50.718;7.328;2022-07-06T07:47:51;17.60;51.70
37456;DHT22;23316;50.718;7.328;2022-07-06T07:50:19;17.60;51.30
37456;DHT22;23316;50.718;7.328;2022-07-06T07:52:46;17.60;51.40
37456;DHT22;23316;50.718;7.328;2022-07-06T07:55:15;17.60;52.10
37456;DHT22;23316;50.718;7.328;2022-07-06T07:57:43;17.60;52.10
37456;DHT22;23316;50.718;7.328;2022-07-06T08:00:11;17.60;52.10
37456;DHT22;23316;50.718;7.328;2022-07-06T08:02:39;17.60;52.30
37456;DHT22;23316;50.718;7.328;2022-07-06T08:05:07;17.60;52.10
37456;DHT22;23316;50.718;7.328;2022-07-06T08:07:39;17.60;51.60
37456;DHT22;23316;50.718;7.328;2022-07-06T08:10:07;17.60;51.60
37456;DHT22;23316;50.718;7.328;2022-07-06T08:12:35;17.60;51.60
37456;DHT22;23316;50.718;7.328;2022-07-06T08:15:03;17.60;51.50
37456;DHT22;23316;50.718;7.328;2022-07-06T08:17:31;17.60;51.30
37456;DHT22;23316;50.718;7.328;2022-07-06T08:19:58;17.60;51.60
37456;DHT22;23316;50.718;7.328;2022-07-06T08:22:26;17.70;51.80
37456;DHT22;23316;50.718;7.328;2022-07-06T08:24:55;17.60;51.50
37456;DHT22;23316;50.718;7.328;2022-07-06T08:27:24;17.70;51.90
37456;DHT22;23316;50.718;7.328;2022-07-06T08:29:52;17.80;51.70
37456;DHT22;23316;50.718;7.328;2022-07-06T08:32:20;17.80;51.40
37456;DHT22;23316;50.718;7.328;2022-07-06T08:34:47;17.90;51.00
37456;DHT22;23316;50.718;7.328;2022-07-06T08:37:15;18.00;50.70
37456;DHT22;23316;50.718;7.328;2022-07-06T08:39:42;18.00;50.80
37456;DHT22;23316;50.718;7.328;2022-07-06T08:42:10;18.10;50.60
37456;DHT22;23316;50.718;7.328;2022-07-06T08:44:39;18.10;49.70
37456;DHT22;23316;50.718;7.328;2022-07-06T08:47:10;18.10;49.90
37456;DHT22;23316;50.718;7.328;2022-07-06T08:49:37;18.10;49.70
37456;DHT22;23316;50.718;7.328;2022-07-06T08:52:06;18.20;49.00
37456;DHT22;23316;50.718;7.328;2022-07-06T08:54:34;18.30;49.70
37456;DHT22;23316;50.718;7.328;2022-07-06T08:57:02;18.30;50.40
37456;DHT22;23316;50.718;7.328;2022-07-06T08:59:31;18.50;50.80
37456;DHT22;23316;50.718;7.328;2022-07-06T09:01:59;18.60;50.10
37456;DHT22;23316;50.718;7.328;2022-07-06T09:04:28;18.70;49.30
37456;DHT22;23316;50.718;7.328;2022-07-06T09:06:57;18.80;49.50
37456;DHT22;23316;50.718;7.328;2022-07-06T09:09:24;18.80;47.40
37456;DHT22;23316;50.718;7.328;2022-07-06T09:11:52;18.80;48.00
37456;DHT22;23316;50.718;7.328;2022-07-06T09:14:19;19.00;47.60
37456;DHT22;23316;50.718;7.328;2022-07-06T09:16:52;19.10;47.70
37456;DHT22;23316;50.718;7.328;2022-07-06T09:19:19;19.20;47.70
37456;DHT22;23316;50.718;7.328;2022-07-06T09:21:48;19.30;47.80
37456;DHT22;23316;50.718;7.328;2022-07-06T09:24:16;19.40;47.20
37456;DHT22;23316;50.718;7.328;2022-07-06T09:26:45;19.40;47.20
37456;DHT22;23316;50.718;7.328;2022-07-06T09:29:14;19.50;47.40
37456;DHT22;23316;50.718;7.328;2022-07-06T09:31:41;19.60;47.60
37456;DHT22;23316;50.718;7.328;2022-07-06T09:34:09;19.60;46.80
37456;DHT22;23316;50.718;7.328;2022-07-06T09:36:38;19.60;46.60
37456;DHT22;23316;50.718;7.328;2022-07-06T09:39:23;19.60;47.00
37456;DHT22;23316;50.718;7.328;2022-07-06T09:41:54;19.70;46.60
37456;DHT22;23316;50.718;7.328;2022-07-06T09:44:23;19.80;46.70
37456;DHT22;23316;50.718;7.328;2022-07-06T09:46:52;19.90;46.60
37456;DHT22;23316;50.718;7.328;2022-07-06T09:49:20;20.00;46.00
37456;DHT22;23316;50.718;7.328;2022-07-06T09:51:49;20.10;45.00
37456;DHT22;23316;50.718;7.328;2022-07-06T09:54:17;20.10;45.00
37456;DHT22;23316;50.718;7.328;2022-07-06T09:56:47;20.10;44.60
37456;DHT22;23316;50.718;7.328;2022-07-06T09:59:18;20.00;43.70
37456;DHT22;23316;50.718;7.328;2022-07-06T10:01:48;20.00;44.10
37456;DHT22;23316;50.718;7.328;2022-07-06T10:04:18;20.00;42.40
37456;DHT22;23316;50.718;7.328;2022-07-06T10:06:46;19.90;41.60
37456;DHT22;23316;50.718;7.328;2022-07-06T10:09:15;19.90;42.20
37456;DHT22;23316;50.718;7.328;2022-07-06T10:11:48;19.90;44.20
37456;DHT22;23316;50.718;7.328;2022-07-06T10:14:18;19.90;45.50
37456;DHT22;23316;50.718;7.328;2022-07-06T10:16:48;20.00;45.60
37456;DHT22;23316;50.718;7.328;2022-07-06T10:19:16;19.90;45.00
37456;DHT22;23316;50.718;7.328;2022-07-06T10:21:45;19.90;45.60
37456;DHT22;23316;50.718;7.328;2022-07-06T10:24:13;19.90;45.50
37456;DHT22;23316;50.718;7.328;2022-07-06T10:26:42;19.90;44.90
37456;DHT22;23316;50.718;7.328;2022-07-06T10:29:11;20.00;45.30
37456;DHT22;23316;50.718;7.328;2022-07-06T10:31:40;20.00;44.80
37456;DHT22;23316;50.718;7.328;2022-07-06T10:34:13;20.10;44.90
37456;DHT22;23316;50.718;7.328;2022-07-06T10:36:42;20.20;44.20
37456;DHT22;23316;50.718;7.328;2022-07-06T10:39:11;20.20;42.80
37456;DHT22;23316;50.718;7.328;2022-07-06T10:41:56;20.20;42.90
37456;DHT22;23316;50.718;7.328;2022-07-06T10:44:26;20.00;42.90
37456;DHT22;23316;50.718;7.328;2022-07-06T10:46:56;20.00;43.10
37456;DHT22;23316;50.718;7.328;2022-07-06T10:49:25;19.90;43.60
37456;DHT22;23316;50.718;7.328;2022-07-06T10:51:53;19.90;43.40
37456;DHT22;23316;50.718;7.328;2022-07-06T10:54:20;19.80;43.50
37456;DHT22;23316;50.718;7.328;2022-07-06T10:56:49;19.70;43.40
37456;DHT22;23316;50.718;7.328;2022-07-06T10:59:20;19.70;44.00
37456;DHT22;23316;50.718;7.328;2022-07-06T11:02:14;19.80;44.70
37456;DHT22;23316;50.718;7.328;2022-07-06T11:04:43;19.80;45.40
37456;DHT22;23316;50.718;7.328;2022-07-06T11:07:12;19.90;45.60
37456;DHT22;23316;50.718;7.328;2022-07-06T11:09:42;20.00;45.10
37456;DHT22;23316;50.718;7.328;2022-07-06T11:12:20;20.10;44.40
37456;DHT22;23316;50.718;7.328;2022-07-06T11:14:49;20.20;44.00
37456;DHT22;23316;50.718;7.328;2022-07-06T11:17:19;20.30;44.40
37456;DHT22;23316;50.718;7.328;2022-07-06T11:19:50;20.30;43.10
37456;DHT22;23316;50.718;7.328;2022-07-06T11:22:22;20.30;43.90
37456;DHT22;23316;50.718;7.328;2022-07-06T11:24:51;20.40;44.20
37456;DHT22;23316;50.718;7.328;2022-07-06T11:27:19;20.50;44.30
37456;DHT22;23316;50.718;7.328;2022-07-06T11:29:49;20.60;43.30
37456;DHT22;23316;50.718;7.328;2022-07-06T11:32:23;20.60;43.70
37456;DHT22;23316;50.718;7.328;2022-07-06T11:34:51;20.70;43.90
37456;DHT22;23316;50.718;7.328;2022-07-06T11:37:19;20.70;42.80
37456;DHT22;23316;50.718;7.328;2022-07-06T11:39:49;20.80;42.70
37456;DHT22;23316;50.718;7.328;2022-07-06T11:42:17;20.70;41.50
37456;DHT22;23316;50.718;7.328;2022-07-06T11:44:45;20.80;42.80
37456;DHT22;23316;50.718;7.328;2022-07-06T11:47:14;20.80;41.80
37456;DHT22;23316;50.718;7.328;2022-07-06T11:49:43;20.80;41.00
37456;DHT22;23316;50.718;7.328;2022-07-06T11:52:13;20.70;41.50
37456;DHT22;23316;50.718;7.328;2022-07-06T11:54:41;20.70;42.60
37456;DHT22;23316;50.718;7.328;2022-07-06T11:57:11;20.70;42.30
37456;DHT22;23316;50.718;7.328;2022-07-06T11:59:40;20.70;42.30
37456;DHT22;23316;50.718;7.328;2022-07-06T12:02:09;20.70;42.10
37456;DHT22;23316;50.718;7.328;2022-07-06T12:04:38;20.70;41.90
37456;DHT22;23316;50.718;7.328;2022-07-06T12:07:08;20.80;42.20
37456;DHT22;23316;50.718;7.328;2022-07-06T12:09:39;20.80;41.20
37456;DHT22;23316;50.718;7.328;2022-07-06T12:12:09;20.80;42.40
37456;DHT22;23316;50.718;7.328;2022-07-06T12:14:38;20.90;41.00
37456;DHT22;23316;50.718;7.328;2022-07-06T12:17:07;20.90;40.80
37456;DHT22;23316;50.718;7.328;2022-07-06T12:19:36;20.90;39.80
37456;DHT22;23316;50.718;7.328;2022-07-06T12:22:04;20.90;40.40
37456;DHT22;23316;50.718;7.328;2022-07-06T12:24:35;21.00;41.00
37456;DHT22;23316;50.718;7.328;2022-07-06T12:27:11;21.00;40.70
37456;DHT22;23316;50.718;7.328;2022-07-06T12:29:39;21.10;40.60
37456;DHT22;23316;50.718;7.328;2022-07-06T12:32:13;21.10;40.90
37456;DHT22;23316;50.718;7.328;2022-07-06T12:34:41;21.20;40.80
37456;DHT22;23316;50.718;7.328;2022-07-06T12:37:09;21.20;40.00
37456;DHT22;23316;50.718;7.328;2022-07-06T12:39:43;21.30;40.50
37456;DHT22;23316;50.718;7.328;2022-07-06T12:42:14;21.30;38.90
37456;DHT22;23316;50.718;7.328;2022-07-06T12:44:44;21.30;39.30
37456;DHT22;23316;50.718;7.328;2022-07-06T12:47:12;21.40;39.60
37456;DHT22;23316;50.718;7.328;2022-07-06T12:49:40;21.30;39.80
37456;DHT22;23316;50.718;7.328;2022-07-06T12:52:10;21.30;39.80
37456;DHT22;23316;50.718;7.328;2022-07-06T12:54:43;21.30;40.10
37456;DHT22;23316;50.718;7.328;2022-07-06T12:57:13;21.20;40.40
37456;DHT22;23316;50.718;7.328;2022-07-06T12:59:44;21.20;40.40
37456;DHT22;23316;50.718;7.328;2022-07-06T13:02:19;21.20;40.80
37456;DHT22;23316;50.718;7.328;2022-07-06T13:04:55;21.30;41.20
37456;DHT22;23316;50.718;7.328;2022-07-06T13:07:23;21.40;40.90
37456;DHT22;23316;50.718;7.328;2022-07-06T13:09:53;21.50;41.30
37456;DHT22;23316;50.718;7.328;2022-07-06T13:12:21;21.70;41.30
37456;DHT22;23316;50.718;7.328;2022-07-06T13:14:49;21.70;41.30
37456;DHT22;23316;50.718;7.328;2022-07-06T13:17:17;21.80;40.70
37456;DHT22;23316;50.718;7.328;2022-07-06T13:19:45;21.90;40.60
37456;DHT22;23316;50.718;7.328;2022-07-06T13:22:12;22.00;39.80
37456;DHT22;23316;50.718;7.328;2022-07-06T13:24:40;22.00;38.60
37456;DHT22;23316;50.718;7.328;2022-07-06T13:27:09;22.00;39.80
37456;DHT22;23316;50.718;7.328;2022-07-06T13:29:37;22.00;39.80
37456;DHT22;23316;50.718;7.328;2022-07-06T13:32:06;22.10;39.60
37456;DHT22;23316;50.718;7.328;2022-07-06T13:34:34;22.10;39.60
37456;DHT22;23316;50.718;7.328;2022-07-06T13:37:03;22.10;39.70
37456;DHT22;23316;50.718;7.328;2022-07-06T13:39:31;22.10;39.30
37456;DHT22;23316;50.718;7.328;2022-07-06T13:41:59;22.10;39.30
37456;DHT22;23316;50.718;7.328;2022-07-06T13:44:28;22.10;39.20
37456;DHT22;23316;50.718;7.328;2022-07-06T13:46:56;22.10;38.60
37456;DHT22;23316;50.718;7.328;2022-07-06T13:49:23;22.10;38.30
37456;DHT22;23316;50.718;7.328;2022-07-06T13:51:50;22.10;38.50
37456;DHT22;23316;50.718;7.328;2022-07-06T13:54:18;22.10;38.00
37456;DHT22;23316;50.718;7.328;2022-07-06T13:56:46;22.10;38.10
37456;DHT22;23316;50.718;7.328;2022-07-06T13:59:13;22.10;38.40
37456;DHT22;23316;50.718;7.328;2022-07-06T14:01:42;22.10;38.10
37456;DHT22;23316;50.718;7.328;2022-07-06T14:04:09;22.10;37.70
37456;DHT22;23316;50.718;7.328;2022-07-06T14:06:37;22.00;38.20
37456;DHT22;23316;50.718;7.328;2022-07-06T14:09:04;22.10;38.70
37456;DHT22;23316;50.718;7.328;2022-07-06T14:11:32;22.10;39.20
37456;DHT22;23316;50.718;7.328;2022-07-06T14:13:59;22.20;39.30
37456;DHT22;23316;50.718;7.328;2022-07-06T14:16:27;22.30;39.80
37456;DHT22;23316;50.718;7.328;2022-07-06T14:18:56;22.40;39.40
37456;DHT22;23316;50.718;7.328;2022-07-06T14:21:23;22.50;38.00
37456;DHT22;23316;50.718;7.328;2022-07-06T14:23:51;22.50;38.80
37456;DHT22;23316;50.718;7.328;2022-07-06T14:26:19;22.50;38.30
37456;DHT22;23316;50.718;7.328;2022-07-06T14:28:47;22.60;38.40
37456;DHT22;23316;50.718;7.328;2022-07-06T14:31:14;22.60;38.30
37456;DHT22;23316;50.718;7.328;2022-07-06T14:33:42;22.60;38.60
37456;DHT22;23316;50.718;7.328;2022-07-06T14:36:11;22.60;38.80
37456;DHT22;23316;50.718;7.328;2022-07-06T14:38:39;22.60;38.90
37456;DHT22;23316;50.718;7.328;2022-07-06T14:41:06;22.50;37.60
37456;DHT22;23316;50.718;7.328;2022-07-06T14:43:34;22.60;37.90
37456;DHT22;23316;50.718;7.328;2022-07-06T14:46:03;22.60;37.80
37456;DHT22;23316;50.718;7.328;2022-07-06T14:48:30;22.50;37.80
37456;DHT22;23316;50.718;7.328;2022-07-06T14:50:57;22.50;38.00
37456;DHT22;23316;50.718;7.328;2022-07-06T14:53:26;22.50;38.50
37456;DHT22;23316;50.718;7.328;2022-07-06T14:55:54;22.50;38.80
37456;DHT22;23316;50.718;7.328;2022-07-06T14:58:21;22.50;38.10
37456;DHT22;23316;50.718;7.328;2022-07-06T15:00:49;22.50;38.90
37456;DHT22;23316;50.718;7.328;2022-07-06T15:03:18;22.50;37.90
37456;DHT22;23316;50.718;7.328;2022-07-06T15:05:45;22.30;37.60
37456;DHT22;23316;50.718;7.328;2022-07-06T15:08:14;22.30;38.40
37456;DHT22;23316;50.718;7.328;2022-07-06T15:10:43;22.30;37.90
37456;DHT22;23316;50.718;7.328;2022-07-06T15:13:11;22.30;38.20
37456;DHT22;23316;50.718;7.328;2022-07-06T15:15:38;22.30;38.60
37456;DHT22;23316;50.718;7.328;2022-07-06T15:18:06;22.30;38.30
37456;DHT22;23316;50.718;7.328;2022-07-06T15:20:33;22.30;37.40
37456;DHT22;23316;50.718;7.328;2022-07-06T15:23:01;22.20;37.50
37456;DHT22;23316;50.718;7.328;2022-07-06T15:25:28;22.20;37.80
37456;DHT22;23316;50.718;7.328;2022-07-06T15:27:57;22.10;38.10
37456;DHT22;23316;50.718;7.328;2022-07-06T15:30:24;22.10;38.70
37456;DHT22;23316;50.718;7.328;2022-07-06T15:32:52;22.20;38.10
37456;DHT22;23316;50.718;7.328;2022-07-06T15:35:20;22.20;38.50
37456;DHT22;23316;50.718;7.328;2022-07-06T15:37:47;22.20;38.10